sensor_id;sensor_type;location;lat;lon;timestamp;temperature;humidity
67165;SHT31;54093;50.014;19.984;2023-05-14T00:08:08;9.30;69.90
67165;SHT31;54093;50.014;19.984;2023-05-14T00:17:29;9.18;70.49
67165;SHT31;54093;50.014;19.984;2023-05-14T00:26:50;9.14;70.17
67165;SHT31;54093;50.014;19.984;2023-05-14T00:36:12;9.02;70.52
67165;SHT31;54093;50.014;19.984;2023-05-14T00:45:34;8.95;70.69
67165;SHT31;54093;50.014;19.984;2023-05-14T00:54:55;8.87;71.14
67165;SHT31;54093;50.014;19.984;2023-05-14T01:04:16;8.85;71.12
67165;SHT31;54093;50.014;19.984;2023-05-14T01:13:56;8.74;71.23
67165;SHT31;54093;50.014;19.984;2023-05-14T01:23:19;8.56;71.85
67165;SHT31;54093;50.014;19.984;2023-05-14T01:32:42;8.57;71.74
67165;SHT31;54093;50.014;19.984;2023-05-14T01:42:06;8.50;71.66
67165;SHT31;54093;50.014;19.984;2023-05-14T01:51:27;8.32;72.17
67165;SHT31;54093;50.014;19.984;2023-05-14T02:00:48;8.34;71.49
67165;SHT31;54093;50.014;19.984;2023-05-14T02:10:09;8.06;71.77
67165;SHT31;54093;50.014;19.984;2023-05-14T02:19:31;7.93;71.73
67165;SHT31;54093;50.014;19.984;2023-05-14T02:28:51;7.91;71.87
67165;SHT31;54093;50.014;19.984;2023-05-14T02:38:12;7.61;72.94
67165;SHT31;54093;50.014;19.984;2023-05-14T02:47:33;7.77;72.05
67165;SHT31;54093;50.014;19.984;2023-05-14T02:56:54;7.68;72.26
67165;SHT31;54093;50.014;19.984;2023-05-14T03:06:15;7.62;72.73
67165;SHT31;54093;50.014;19.984;2023-05-14T03:15:36;7.68;72.79
67165;SHT31;54093;50.014;19.984;2023-05-14T03:24:56;7.86;72.41
67165;SHT31;54093;50.014;19.984;2023-05-14T03:34:17;7.86;72.97
67165;SHT31;54093;50.014;19.984;2023-05-14T03:43:38;7.91;73.98
67165;SHT31;54093;50.014;19.984;2023-05-14T03:53:00;7.82;74.23
67165;SHT31;54093;50.014;19.984;2023-05-14T04:02:22;7.98;73.57
67165;SHT31;54093;50.014;19.984;2023-05-14T04:11:42;8.07;73.76
67165;SHT31;54093;50.014;19.984;2023-05-14T04:21:03;8.19;73.39
67165;SHT31;54093;50.014;19.984;2023-05-14T04:30:24;8.28;74.34
67165;SHT31;54093;50.014;19.984;2023-05-14T04:39:45;8.34;73.60
67165;SHT31;54093;50.014;19.984;2023-05-14T04:49:06;8.43;73.63
67165;SHT31;54093;50.014;19.984;2023-05-14T04:58:27;8.56;73.82
67165;SHT31;54093;50.014;19.984;2023-05-14T05:07:51;8.70;74.06
67165;SHT31;54093;50.014;19.984;2023-05-14T05:17:12;8.82;74.39
67165;SHT31;54093;50.014;19.984;2023-05-14T05:26:33;9.09;74.20
67165;SHT31;54093;50.014;19.984;2023-05-14T05:35:56;9.58;73.73
67165;SHT31;54093;50.014;19.984;2023-05-14T05:45:17;10.31;74.22
67165;SHT31;54093;50.014;19.984;2023-05-14T05:54:39;11.25;72.95
67165;SHT31;54093;50.014;19.984;2023-05-14T06:04:00;12.17;70.71
67165;SHT31;54093;50.014;19.984;2023-05-14T06:13:21;13.23;69.25
67165;SHT31;54093;50.014;19.984;2023-05-14T06:22:42;14.16;66.63
67165;SHT31;54093;50.014;19.984;2023-05-14T06:32:05;15.00;63.44
67165;SHT31;54093;50.014;19.984;2023-05-14T06:41:34;15.93;60.46
67165;SHT31;54093;50.014;19.984;2023-05-14T06:50:56;16.82;60.22
67165;SHT31;54093;50.014;19.984;2023-05-14T07:00:17;17.72;57.87
67165;SHT31;54093;50.014;19.984;2023-05-14T07:09:39;18.87;51.46
67165;SHT31;54093;50.014;19.984;2023-05-14T07:18:59;18.57;54.24
67165;SHT31;54093;50.014;19.984;2023-05-14T07:28:20;19.74;51.45
67165;SHT31;54093;50.014;19.984;2023-05-14T07:37:42;20.73;49.69
67165;SHT31;54093;50.014;19.984;2023-05-14T07:47:06;21.51;47.63
67165;SHT31;54093;50.014;19.984;2023-05-14T07:56:28;22.27;44.99
67165;SHT31;54093;50.014;19.984;2023-05-14T08:05:49;22.44;44.45
67165;SHT31;54093;50.014;19.984;2023-05-14T08:15:13;22.74;43.27
67165;SHT31;54093;50.014;19.984;2023-05-14T08:24:34;23.51;39.78
67165;SHT31;54093;50.014;19.984;2023-05-14T08:33:55;23.18;40.72
67165;SHT31;54093;50.014;19.984;2023-05-14T08:43:19;22.61;42.21
67165;SHT31;54093;50.014;19.984;2023-05-14T08:52:43;23.13;41.29
67165;SHT31;54093;50.014;19.984;2023-05-14T09:02:04;23.98;40.68
67165;SHT31;54093;50.014;19.984;2023-05-14T09:11:26;24.55;39.44
67165;SHT31;54093;50.014;19.984;2023-05-14T09:20:47;24.94;36.63
67165;SHT31;54093;50.014;19.984;2023-05-14T09:30:10;24.43;36.90
67165;SHT31;54093;50.014;19.984;2023-05-14T09:39:33;24.30;38.20
67165;SHT31;54093;50.014;19.984;2023-05-14T09:48:56;24.43;36.81
67165;SHT31;54093;50.014;19.984;2023-05-14T09:58:17;24.79;37.14
67165;SHT31;54093;50.014;19.984;2023-05-14T10:07:41;24.72;37.74
67165;SHT31;54093;50.014;19.984;2023-05-14T10:17:05;24.22;38.16
67165;SHT31;54093;50.014;19.984;2023-05-14T10:26:27;24.66;37.40
67165;SHT31;54093;50.014;19.984;2023-05-14T10:36:06;24.02;37.07
67165;SHT31;54093;50.014;19.984;2023-05-14T10:45:29;23.39;37.42
67165;SHT31;54093;50.014;19.984;2023-05-14T10:54:54;23.45;38.29
67165;SHT31;54093;50.014;19.984;2023-05-14T11:04:22;23.77;40.13
67165;SHT31;54093;50.014;19.984;2023-05-14T11:13:43;23.50;37.95
67165;SHT31;54093;50.014;19.984;2023-05-14T11:23:04;23.60;38.65
67165;SHT31;54093;50.014;19.984;2023-05-14T11:32:25;22.88;39.57
67165;SHT31;54093;50.014;19.984;2023-05-14T11:41:46;22.94;39.33
67165;SHT31;54093;50.014;19.984;2023-05-14T11:51:07;23.08;39.23
67165;SHT31;54093;50.014;19.984;2023-05-14T12:00:28;22.72;38.22
67165;SHT31;54093;50.014;19.984;2023-05-14T12:09:50;22.13;39.68
67165;SHT31;54093;50.014;19.984;2023-05-14T12:19:16;22.20;39.20
67165;SHT31;54093;50.014;19.984;2023-05-14T12:28:38;22.63;39.06
67165;SHT31;54093;50.014;19.984;2023-05-14T12:38:03;22.50;41.55
67165;SHT31;54093;50.014;19.984;2023-05-14T12:47:24;22.64;39.42
67165;SHT31;54093;50.014;19.984;2023-05-14T12:56:45;22.63;38.43
67165;SHT31;54093;50.014;19.984;2023-05-14T13:06:06;22.55;39.88
67165;SHT31;54093;50.014;19.984;2023-05-14T13:15:27;22.75;38.68
67165;SHT31;54093;50.014;19.984;2023-05-14T13:24:48;22.45;38.86
67165;SHT31;54093;50.014;19.984;2023-05-14T13:34:09;22.21;40.37
67165;SHT31;54093;50.014;19.984;2023-05-14T13:43:31;22.12;38.96
67165;SHT31;54093;50.014;19.984;2023-05-14T13:52:53;21.83;38.64
67165;SHT31;54093;50.014;19.984;2023-05-14T14:02:15;21.62;38.63
67165;SHT31;54093;50.014;19.984;2023-05-14T14:11:36;21.28;38.85
67165;SHT31;54093;50.014;19.984;2023-05-14T14:20:57;21.14;39.37
67165;SHT31;54093;50.014;19.984;2023-05-14T14:30:18;21.03;40.83
67165;SHT31;54093;50.014;19.984;2023-05-14T14:39:39;20.86;40.51
67165;SHT31;54093;50.014;19.984;2023-05-14T14:49:00;20.73;41.16
67165;SHT31;54093;50.014;19.984;2023-05-14T14:58:22;20.60;43.01
67165;SHT31;54093;50.014;19.984;2023-05-14T15:07:45;20.52;43.58
67165;SHT31;54093;50.014;19.984;2023-05-14T15:17:06;20.38;43.82
67165;SHT31;54093;50.014;19.984;2023-05-14T15:26:26;20.26;44.01
67165;SHT31;54093;50.014;19.984;2023-05-14T15:35:47;20.11;44.12
67165;SHT31;54093;50.014;19.984;2023-05-14T15:45:10;20.01;44.70
67165;SHT31;54093;50.014;19.984;2023-05-14T15:54:31;19.91;45.29
67165;SHT31;54093;50.014;19.984;2023-05-14T16:03:52;19.87;45.73
67165;SHT31;54093;50.014;19.984;2023-05-14T16:13:13;19.78;46.62
67165;SHT31;54093;50.014;19.984;2023-05-14T16:22:34;19.69;47.19
67165;SHT31;54093;50.014;19.984;2023-05-14T16:31:56;19.62;46.88
67165;SHT31;54093;50.014;19.984;2023-05-14T16:41:20;19.50;47.31
67165;SHT31;54093;50.014;19.984;2023-05-14T16:50:44;19.43;49.29
67165;SHT31;54093;50.014;19.984;2023-05-14T17:00:05;19.35;49.98
67165;SHT31;54093;50.014;19.984;2023-05-14T17:09:26;19.25;49.62
67165;SHT31;54093;50.014;19.984;2023-05-14T17:18:47;19.08;52.83
67165;SHT31;54093;50.014;19.984;2023-05-14T17:28:08;19.04;54.24
67165;SHT31;54093;50.014;19.984;2023-05-14T17:37:30;18.88;54.73
67165;SHT31;54093;50.014;19.984;2023-05-14T17:46:51;18.72;60.27
67165;SHT31;54093;50.014;19.984;2023-05-14T17:56:12;18.43;62.13
67165;SHT31;54093;50.014;19.984;2023-05-14T18:05:33;18.13;59.18
67165;SHT31;54093;50.014;19.984;2023-05-14T18:14:54;17.64;61.43
67165;SHT31;54093;50.014;19.984;2023-05-14T18:24:15;17.60;64.29
67165;SHT31;54093;50.014;19.984;2023-05-14T18:33:36;17.37;64.73
67165;SHT31;54093;50.014;19.984;2023-05-14T18:42:57;17.21;67.38
67165;SHT31;54093;50.014;19.984;2023-05-14T18:52:18;17.10;67.82
67165;SHT31;54093;50.014;19.984;2023-05-14T19:01:39;16.92;68.63
67165;SHT31;54093;50.014;19.984;2023-05-14T19:11:00;16.68;67.73
67165;SHT31;54093;50.014;19.984;2023-05-14T19:20:29;16.58;69.72
67165;SHT31;54093;50.014;19.984;2023-05-14T19:29:50;16.58;68.62
67165;SHT31;54093;50.014;19.984;2023-05-14T19:39:11;16.65;67.90
67165;SHT31;54093;50.014;19.984;2023-05-14T19:48:32;16.62;68.46
67165;SHT31;54093;50.014;19.984;2023-05-14T19:57:53;16.48;68.50
67165;SHT31;54093;50.014;19.984;2023-05-14T20:07:14;16.25;69.90
67165;SHT31;54093;50.014;19.984;2023-05-14T20:16:35;16.07;71.33
67165;SHT31;54093;50.014;19.984;2023-05-14T20:25:57;15.94;70.98
67165;SHT31;54093;50.014;19.984;2023-05-14T20:35:19;15.79;70.92
67165;SHT31;54093;50.014;19.984;2023-05-14T20:44:40;15.74;71.04
67165;SHT31;54093;50.014;19.984;2023-05-14T20:54:00;15.73;71.15
67165;SHT31;54093;50.014;19.984;2023-05-14T21:03:22;15.67;70.72
67165;SHT31;54093;50.014;19.984;2023-05-14T21:12:43;15.62;70.72
67165;SHT31;54093;50.014;19.984;2023-05-14T21:22:05;15.32;71.59
67165;SHT31;54093;50.014;19.984;2023-05-14T21:31:26;15.19;71.38
67165;SHT31;54093;50.014;19.984;2023-05-14T21:40:47;15.02;71.31
67165;SHT31;54093;50.014;19.984;2023-05-14T21:50:08;14.73;72.09
67165;SHT31;54093;50.014;19.984;2023-05-14T21:59:32;14.84;71.71
67165;SHT31;54093;50.014;19.984;2023-05-14T22:08:53;14.76;71.57
67165;SHT31;54093;50.014;19.984;2023-05-14T22:18:14;14.73;72.21
67165;SHT31;54093;50.014;19.984;2023-05-14T22:27:35;14.59;72.51
67165;SHT31;54093;50.014;19.984;2023-05-14T22:36:56;14.47;72.43
67165;SHT31;54093;50.014;19.984;2023-05-14T22:46:18;14.37;72.85
67165;SHT31;54093;50.014;19.984;2023-05-14T22:55:39;14.33;73.34
67165;SHT31;54093;50.014;19.984;2023-05-14T23:05:00;14.26;73.25
67165;SHT31;54093;50.014;19.984;2023-05-14T23:14:20;14.19;74.00
67165;SHT31;54093;50.014;19.984;2023-05-14T23:23:42;14.23;73.75
67165;SHT31;54093;50.014;19.984;2023-05-14T23:33:03;14.11;74.74
67165;SHT31;54093;50.014;19.984;2023-05-14T23:42:23;14.06;75.00
67165;SHT31;54093;50.014;19.984;2023-05-14T23:51:45;14.01;75.17
